createdAt,value
2019-02-22T00:02:33.812Z,17.53
2019-02-22T00:05:04.067Z,16.93
2019-02-22T00:07:34.260Z,16.00
2019-02-22T00:10:05.552Z,15.20
2019-02-22T00:12:35.657Z,17.77
2019-02-22T00:15:06.788Z,16.47
2019-02-22T00:17:36.912Z,17.07
2019-02-22T00:20:07.566Z,17.47
2019-02-22T00:22:37.815Z,20.63
2019-02-22T00:25:09.321Z,18.30
2019-02-22T00:27:39.486Z,23.53
2019-02-22T00:30:09.728Z,21.47
2019-02-22T00:32:42.459Z,20.97
2019-02-22T00:35:12.178Z,19.57
2019-02-22T00:37:42.237Z,20.43
2019-02-22T00:40:12.379Z,21.63
2019-02-22T00:42:42.467Z,15.43
2019-02-22T00:45:17.757Z,19.87
2019-02-22T00:47:50.406Z,21.20
2019-02-22T00:50:20.489Z,19.20
2019-02-22T00:52:51.249Z,25.27
2019-02-22T00:55:24.565Z,19.60
2019-02-22T00:57:57.101Z,20.20
2019-02-22T01:00:27.269Z,26.20
2019-02-22T01:02:57.366Z,22.03
2019-02-22T01:05:28.866Z,21.33
2019-02-22T01:07:59.266Z,20.67
2019-02-22T01:10:31.520Z,20.57
2019-02-22T01:13:01.295Z,21.13
2019-02-22T01:15:31.487Z,20.60
2019-02-22T01:18:01.947Z,24.97
2019-02-22T01:20:32.124Z,22.47
2019-02-22T01:23:02.292Z,21.17
2019-02-22T01:25:32.407Z,23.77
2019-02-22T01:28:02.764Z,21.93
2019-02-22T01:30:32.915Z,18.80
2019-02-22T01:33:03.791Z,21.60
2019-02-22T01:35:34.022Z,23.67
2019-02-22T01:38:04.126Z,23.60
2019-02-22T01:40:43.265Z,21.67
2019-02-22T01:43:06.115Z,19.67
2019-02-22T01:45:36.239Z,19.53
2019-02-22T01:48:06.460Z,22.47
2019-02-22T01:50:36.560Z,23.30
2019-02-22T01:53:06.654Z,23.27
2019-02-22T01:55:37.084Z,25.67
2019-02-22T01:58:07.206Z,25.10
2019-02-22T02:00:37.411Z,23.37
2019-02-22T02:03:07.484Z,22.50
2019-02-22T02:05:37.936Z,25.47
2019-02-22T02:08:08.089Z,22.63
2019-02-22T02:10:38.201Z,24.13
2019-02-22T02:13:08.371Z,21.93
2019-02-22T02:15:38.455Z,23.37
2019-02-22T02:18:08.554Z,20.77
2019-02-22T02:20:38.990Z,24.67
2019-02-22T02:23:09.115Z,23.53
2019-02-22T02:25:39.214Z,23.67
2019-02-22T02:28:09.371Z,25.13
2019-02-22T02:30:39.474Z,25.27
2019-02-22T02:33:09.593Z,22.77
2019-02-22T02:35:39.985Z,22.13
2019-02-22T02:38:10.116Z,21.27
2019-02-22T02:40:41.531Z,21.60
2019-02-22T02:43:11.648Z,21.63
2019-02-22T02:45:41.763Z,20.57
2019-02-22T02:48:11.897Z,22.37
2019-02-22T02:50:42.307Z,27.23
2019-02-22T02:53:12.505Z,24.47
2019-02-22T02:55:42.620Z,20.83
2019-02-22T02:58:12.746Z,20.77
2019-02-22T03:00:43.150Z,21.40
2019-02-22T03:03:13.267Z,21.80
2019-02-22T03:06:02.709Z,25.17
2019-02-22T03:08:36.344Z,18.97
2019-02-22T03:11:06.728Z,18.50
2019-02-22T03:13:37.116Z,18.17
2019-02-22T03:16:07.164Z,19.80
2019-02-22T03:18:37.321Z,20.63
2019-02-22T03:21:07.414Z,21.73
2019-02-22T03:23:37.825Z,19.30
2019-02-22T03:26:07.966Z,18.87
2019-02-22T03:28:38.055Z,22.70
2019-02-22T03:31:08.225Z,21.30
2019-02-22T03:33:38.302Z,21.93
2019-02-22T03:36:08.452Z,19.53
2019-02-22T03:38:38.957Z,25.17
2019-02-22T03:41:09.088Z,18.73
2019-02-22T03:43:39.280Z,21.70
2019-02-22T03:46:09.400Z,23.87
2019-02-22T03:48:39.518Z,23.17
2019-02-22T03:51:09.633Z,26.53
2019-02-22T03:53:54.087Z,29.70
2019-02-22T03:56:24.187Z,29.13
2019-02-22T03:58:54.299Z,30.23
2019-02-22T04:01:24.723Z,29.73
2019-02-22T04:03:54.851Z,30.80
2019-02-22T04:06:24.977Z,27.93
2019-02-22T04:08:55.094Z,31.50
2019-02-22T04:11:25.670Z,26.30
2019-02-22T04:13:55.864Z,27.77
2019-02-22T04:16:26.060Z,32.03
2019-02-22T04:18:56.165Z,32.07
2019-02-22T04:21:26.654Z,33.03
2019-02-22T04:23:56.728Z,29.43
2019-02-22T04:26:26.869Z,28.90
2019-02-22T04:28:56.984Z,36.43
2019-02-22T04:31:27.105Z,35.33
2019-02-22T04:33:57.238Z,31.63
2019-02-22T04:36:27.699Z,30.30
2019-02-22T04:38:57.841Z,32.20
2019-02-22T04:41:28.013Z,35.03
2019-02-22T04:43:58.266Z,31.17
2019-02-22T04:46:28.949Z,35.50
2019-02-22T04:48:59.054Z,30.07
2019-02-22T04:51:29.222Z,31.33
2019-02-22T04:53:59.359Z,37.57
2019-02-22T04:56:29.541Z,38.87
2019-02-22T04:58:59.640Z,36.23
2019-02-22T05:01:29.831Z,37.17
2019-02-22T05:03:59.945Z,36.67
2019-02-22T05:06:30.370Z,34.27
2019-02-22T05:09:00.550Z,32.97
2019-02-22T05:11:33.447Z,31.57
2019-02-22T05:14:05.092Z,38.83
2019-02-22T05:16:35.210Z,45.63
2019-02-22T05:19:05.351Z,47.80
2019-02-22T05:21:35.552Z,43.40
2019-02-22T05:24:05.913Z,45.40
2019-02-22T05:26:36.047Z,43.43
2019-02-22T05:29:06.141Z,46.93
2019-02-22T05:31:36.435Z,45.33
2019-02-22T05:34:06.590Z,52.70
2019-02-22T05:36:36.730Z,45.13
2019-02-22T05:39:18.583Z,46.43
2019-02-22T05:41:39.341Z,41.80
2019-02-22T05:44:09.449Z,44.23
2019-02-22T05:46:39.551Z,40.60
2019-02-22T05:49:09.763Z,48.63
2019-02-22T05:51:39.890Z,51.20
2019-02-22T05:54:10.361Z,51.73
2019-02-22T05:56:40.500Z,51.43
2019-02-22T05:59:13.515Z,56.03
2019-02-22T06:01:43.929Z,52.67
2019-02-22T06:04:17.590Z,53.97
2019-02-22T06:06:49.800Z,54.93
2019-02-22T06:09:20.133Z,53.30
2019-02-22T06:11:50.290Z,65.97
2019-02-22T06:14:20.942Z,55.37
2019-02-22T06:16:51.065Z,53.07
2019-02-22T06:19:21.525Z,61.03
2019-02-22T06:21:51.851Z,55.67
2019-02-22T06:24:22.028Z,54.17
2019-02-22T06:26:52.255Z,63.60
2019-02-22T06:29:22.590Z,58.60
2019-02-22T06:31:53.876Z,61.93
2019-02-22T06:34:24.279Z,57.07
2019-02-22T06:37:01.638Z,65.20
2019-02-22T06:39:27.440Z,65.73
2019-02-22T06:41:57.819Z,55.57
2019-02-22T06:44:27.993Z,62.67
2019-02-22T06:47:00.922Z,64.33
2019-02-22T06:49:44.442Z,65.10
2019-02-22T06:52:20.920Z,64.43
2019-02-22T06:54:48.207Z,62.40
2019-02-22T06:57:18.634Z,63.47
2019-02-22T06:59:48.935Z,57.00
2019-02-22T07:02:19.242Z,65.27
2019-02-22T07:04:49.367Z,68.40
2019-02-22T07:07:19.590Z,66.03
2019-02-22T07:09:49.711Z,61.97
2019-02-22T07:12:56.206Z,64.20
2019-02-22T07:15:17.958Z,60.60
2019-02-22T07:17:48.080Z,61.70
2019-02-22T07:20:18.199Z,59.43
2019-02-22T07:22:48.356Z,64.40
2019-02-22T07:25:18.477Z,60.27
2019-02-22T07:30:27.721Z,62.67
2019-02-22T07:32:57.974Z,65.70
2019-02-22T07:35:47.249Z,63.73
2019-02-22T07:38:17.390Z,62.67
2019-02-22T07:40:47.556Z,63.63
2019-02-22T07:43:17.656Z,63.47
2019-02-22T07:46:06.847Z,63.70
2019-02-22T07:48:37.141Z,67.93
2019-02-22T07:51:26.550Z,65.93
2019-02-22T07:54:15.740Z,66.87
2019-02-22T07:56:48.704Z,66.03
2019-02-22T07:59:19.259Z,65.03
2019-02-22T08:01:49.459Z,63.93
2019-02-22T08:04:38.686Z,67.43
2019-02-22T08:07:11.928Z,66.57
2019-02-22T08:10:01.128Z,64.40
2019-02-22T08:12:50.555Z,61.63
2019-02-22T08:15:40.039Z,64.97
2019-02-22T08:18:10.178Z,57.90
2019-02-22T08:20:59.467Z,61.37
2019-02-22T08:23:29.927Z,63.60
2019-02-22T08:26:19.664Z,61.37
2019-02-22T08:28:52.881Z,55.10
2019-02-22T08:31:42.134Z,52.80
2019-02-22T08:34:12.266Z,53.70
2019-02-22T08:36:42.393Z,50.20
2019-02-22T08:39:31.584Z,49.53
2019-02-22T08:42:01.814Z,47.30
2019-02-22T08:44:52.272Z,48.13
2019-02-22T08:47:44.114Z,44.10
2019-02-22T08:50:14.635Z,44.43
2019-02-22T08:52:44.803Z,43.90
2019-02-22T08:55:15.236Z,43.00
2019-02-22T08:58:04.664Z,40.57
2019-02-22T09:00:53.836Z,44.13
2019-02-22T09:03:24.033Z,41.07
2019-02-22T09:05:54.954Z,42.00
2019-02-22T09:08:25.520Z,40.53
2019-02-22T09:11:00.468Z,43.07
2019-02-22T09:13:27.717Z,42.67
2019-02-22T09:16:16.881Z,41.17
2019-02-22T09:19:06.047Z,40.80
2019-02-22T09:21:47.343Z,38.43
2019-02-22T09:24:17.834Z,38.23
2019-02-22T09:26:48.151Z,40.90
2019-02-22T09:29:18.296Z,39.07
2019-02-22T09:31:48.408Z,36.07
2019-02-22T09:34:18.799Z,42.27
2019-02-22T09:37:07.964Z,40.77
2019-02-22T09:39:38.570Z,37.97
2019-02-22T09:42:27.838Z,38.10
2019-02-22T09:44:57.948Z,36.97
2019-02-22T09:47:28.059Z,33.87
2019-02-22T09:50:17.255Z,34.37
2019-02-22T09:52:48.098Z,35.37
2019-02-22T09:55:37.335Z,31.97
2019-02-22T09:58:26.772Z,34.23
2019-02-22T10:00:56.927Z,38.80
2019-02-22T10:03:46.396Z,34.53
2019-02-22T10:06:16.563Z,38.97
2019-02-22T10:08:47.040Z,34.10
2019-02-22T10:11:17.239Z,34.93
2019-02-22T10:13:48.528Z,36.50
2019-02-22T10:16:37.939Z,33.50
2019-02-22T10:19:08.177Z,35.50
2019-02-22T10:21:38.832Z,32.13
2019-02-22T10:24:28.308Z,34.93
2019-02-22T10:27:17.490Z,31.37
2019-02-22T10:29:47.872Z,36.50
2019-02-22T10:32:37.000Z,34.60
2019-02-22T10:35:07.413Z,31.80
2019-02-22T10:37:37.875Z,31.70
2019-02-22T10:40:08.062Z,37.17
2019-02-22T10:42:57.529Z,34.73
2019-02-22T10:45:27.664Z,31.87
2019-02-22T10:47:57.990Z,30.27
2019-02-22T10:50:47.426Z,30.13
2019-02-22T10:53:28.983Z,31.03
2019-02-22T10:55:59.215Z,29.43
2019-02-22T10:58:29.353Z,27.40
2019-02-22T11:00:59.795Z,27.10
2019-02-22T11:03:49.015Z,28.60
2019-02-22T11:06:19.146Z,27.33
2019-02-22T11:08:49.263Z,25.03
2019-02-22T11:11:38.544Z,21.03
2019-02-22T11:14:08.837Z,24.20
2019-02-22T11:16:58.043Z,18.93
2019-02-22T11:19:28.168Z,20.60
2019-02-22T11:21:58.398Z,17.53
2019-02-22T11:24:28.789Z,13.87
2019-02-22T11:26:59.047Z,17.33
2019-02-22T11:29:49.452Z,21.00
2019-02-22T11:32:29.793Z,19.77
2019-02-22T11:35:19.284Z,19.53
2019-02-22T11:37:49.435Z,17.07
2019-02-22T11:40:19.681Z,19.00
2019-02-22T11:43:08.875Z,19.60
2019-02-22T11:45:39.026Z,19.63
2019-02-22T11:48:09.646Z,18.37
2019-02-22T11:50:40.178Z,17.13
2019-02-22T11:53:12.692Z,19.73
2019-02-22T11:55:51.077Z,19.13
2019-02-22T11:58:21.188Z,12.47
2019-02-22T12:00:51.436Z,9.53
2019-02-22T12:03:24.933Z,9.53
2019-02-22T12:05:54.181Z,9.47
2019-02-22T12:08:43.313Z,11.97
2019-02-22T12:11:13.510Z,15.67
2019-02-22T12:13:43.643Z,17.10
2019-02-22T12:16:14.056Z,8.97
2019-02-22T12:18:44.266Z,8.70
2019-02-22T12:21:14.324Z,8.47
2019-02-22T12:23:44.473Z,10.63
2019-02-22T12:26:14.722Z,9.93
2019-02-22T12:28:44.836Z,8.40
2019-02-22T12:31:34.002Z,9.23
2019-02-22T12:34:23.161Z,11.87
2019-02-22T12:36:53.297Z,12.83
2019-02-22T12:39:23.823Z,11.90
2019-02-22T12:42:13.501Z,14.13
2019-02-22T12:44:43.602Z,14.00
2019-02-22T12:47:13.979Z,14.33
2019-02-22T12:49:45.586Z,14.83
2019-02-22T12:52:15.787Z,17.93
2019-02-22T12:54:46.126Z,15.20
2019-02-22T12:57:16.329Z,19.00
2019-02-22T12:59:46.483Z,16.00
2019-02-22T13:02:16.874Z,16.50
2019-02-22T13:04:47.061Z,13.83
2019-02-22T13:07:17.176Z,14.40
2019-02-22T13:10:06.558Z,15.30
2019-02-22T13:12:36.671Z,15.60
2019-02-22T13:15:14.207Z,14.10
2019-02-22T13:17:59.010Z,13.03
2019-02-22T13:20:29.126Z,11.77
2019-02-22T13:22:59.253Z,13.27
2019-02-22T13:25:29.829Z,14.67
2019-02-22T13:27:59.963Z,12.47
2019-02-22T13:30:49.109Z,11.10
2019-02-22T13:33:38.256Z,10.27
2019-02-22T13:36:08.882Z,9.10
2019-02-22T13:38:39.308Z,9.77
2019-02-22T13:41:09.462Z,10.27
2019-02-22T13:43:43.448Z,9.20
2019-02-22T13:46:13.841Z,8.53
2019-02-22T13:49:03.100Z,8.37
2019-02-22T13:51:34.127Z,9.80
2019-02-22T13:54:05.143Z,10.97
2019-02-22T13:56:35.445Z,8.30
2019-02-22T13:59:16.910Z,9.43
2019-02-22T14:01:47.332Z,9.17
2019-02-22T14:04:17.456Z,8.43
2019-02-22T14:06:47.591Z,8.57
2019-02-22T14:09:36.876Z,8.40
2019-02-22T14:12:26.291Z,9.37
2019-02-22T14:15:15.507Z,9.80
2019-02-22T14:18:04.663Z,9.73
2019-02-22T14:20:53.846Z,8.93
2019-02-22T14:23:24.055Z,9.43
2019-02-22T14:26:13.342Z,7.70
2019-02-22T14:28:43.444Z,8.67
2019-02-22T14:31:32.921Z,10.03
2019-02-22T14:34:03.035Z,8.80
2019-02-22T14:36:52.682Z,9.00
2019-02-22T14:39:41.892Z,9.53
2019-02-22T14:42:31.311Z,10.03
2019-02-22T14:45:20.749Z,10.97
2019-02-22T14:47:51.372Z,8.50
2019-02-22T14:50:40.531Z,8.47
2019-02-22T14:53:30.003Z,11.77
2019-02-22T14:56:19.169Z,9.43
2019-02-22T14:59:00.507Z,11.50
2019-02-22T15:01:42.157Z,9.33
2019-02-22T15:04:22.223Z,10.50
2019-02-22T15:06:52.459Z,8.50
2019-02-22T15:09:41.944Z,11.33
2019-02-22T15:12:31.121Z,10.10
2019-02-22T15:18:16.412Z,8.43
2019-02-22T15:20:46.561Z,10.77
2019-02-22T15:23:16.912Z,9.20
2019-02-22T15:29:03.002Z,11.00
2019-02-22T15:31:53.546Z,7.47
2019-02-22T15:34:42.817Z,9.47
2019-02-22T15:40:41.959Z,8.57
2019-02-22T15:43:13.136Z,7.43
2019-02-22T15:46:11.773Z,8.50
2019-02-22T15:48:55.240Z,8.67
2019-02-22T15:51:44.532Z,11.50
2019-02-22T15:54:33.750Z,7.77
2019-02-22T15:57:04.283Z,7.07
2019-02-22T15:59:35.793Z,7.27
2019-02-22T16:02:45.330Z,8.23
2019-02-22T16:05:22.676Z,7.03
2019-02-22T16:08:14.030Z,9.10
2019-02-22T16:10:44.797Z,7.57
2019-02-22T16:13:16.768Z,9.33
2019-02-22T16:16:06.916Z,7.20
2019-02-22T16:21:29.415Z,8.40
2019-02-22T16:24:01.146Z,5.70
2019-02-22T16:26:32.005Z,6.07
2019-02-22T16:29:02.372Z,10.10
2019-02-22T16:31:32.901Z,6.97
2019-02-22T16:34:03.370Z,5.73
2019-02-22T16:36:33.569Z,10.30
2019-02-22T16:39:06.123Z,6.60
2019-02-22T16:41:36.483Z,6.60
2019-02-22T16:44:07.185Z,6.17
2019-02-22T16:46:37.592Z,6.83
2019-02-22T16:49:26.790Z,7.70
2019-02-22T16:52:06.297Z,6.63
2019-02-22T16:54:55.551Z,6.53
2019-02-22T16:57:44.956Z,7.40
2019-02-22T17:03:15.521Z,7.07
2019-02-22T17:05:53.948Z,7.47
2019-02-22T17:09:08.133Z,7.30
2019-02-22T17:11:39.399Z,7.07
2019-02-22T17:16:55.054Z,12.47
2019-02-22T17:19:25.377Z,6.67
2019-02-22T17:21:55.920Z,9.73
2019-02-22T17:24:27.504Z,6.27
2019-02-22T17:27:01.362Z,7.70
2019-02-22T17:29:32.844Z,12.50
2019-02-22T17:32:03.156Z,7.73
2019-02-22T17:34:33.409Z,10.60
2019-02-22T17:37:04.653Z,7.80
2019-02-22T17:39:34.826Z,7.50
2019-02-22T17:42:05.049Z,7.37
2019-02-22T17:44:35.360Z,7.10
2019-02-22T17:47:24.884Z,8.60
2019-02-22T17:52:44.460Z,10.00
2019-02-22T17:57:52.374Z,10.53
2019-02-22T18:00:23.428Z,8.67
2019-02-22T18:02:53.693Z,8.87
2019-02-22T18:05:24.427Z,7.43
2019-02-22T18:08:13.656Z,6.63
2019-02-22T18:10:45.367Z,8.43
2019-02-22T18:13:16.178Z,9.27
2019-02-22T18:15:46.746Z,7.20
2019-02-22T18:18:17.038Z,7.20
2019-02-22T18:20:49.530Z,6.27
2019-02-22T18:23:39.064Z,7.23
2019-02-22T18:26:28.454Z,8.50
2019-02-22T18:28:58.923Z,7.43
2019-02-22T18:31:30.738Z,6.83
2019-02-22T18:34:21.246Z,7.67
2019-02-22T18:36:53.939Z,8.40
2019-02-22T18:42:23.232Z,10.10
2019-02-22T18:44:53.789Z,9.87
2019-02-22T18:47:24.258Z,8.13
2019-02-22T18:50:14.058Z,5.03
2019-02-22T18:52:44.708Z,6.23
2019-02-22T18:58:25.050Z,7.70
2019-02-22T19:00:55.553Z,7.60
2019-02-22T19:03:28.158Z,10.37
2019-02-22T19:06:17.304Z,6.40
2019-02-22T19:08:47.615Z,9.63
2019-02-22T19:11:36.975Z,7.80
2019-02-22T19:16:39.618Z,10.30
2019-02-22T19:19:09.740Z,11.53
2019-02-22T19:21:59.318Z,12.47
2019-02-22T19:24:29.570Z,11.33
2019-02-22T19:26:59.939Z,13.67
2019-02-22T19:29:51.849Z,11.47
2019-02-22T19:32:22.415Z,10.17
2019-02-22T19:35:11.624Z,10.93
2019-02-22T19:37:41.854Z,10.80
2019-02-22T19:40:14.205Z,13.50
2019-02-22T19:42:56.145Z,8.43
2019-02-22T19:45:26.845Z,9.87
2019-02-22T19:48:17.656Z,10.83
2019-02-22T19:50:50.132Z,14.93
2019-02-22T19:53:59.550Z,9.10
2019-02-22T19:56:29.927Z,12.60
2019-02-22T19:59:20.444Z,10.90
2019-02-22T20:02:12.460Z,14.80
2019-02-22T20:05:02.859Z,11.13
2019-02-22T20:07:54.476Z,10.60
2019-02-22T20:10:27.673Z,10.63
2019-02-22T20:13:19.734Z,9.97
2019-02-22T20:16:28.268Z,11.90
2019-02-22T20:19:36.943Z,13.73
2019-02-22T20:22:27.773Z,11.20
2019-02-22T20:25:17.844Z,13.20
2019-02-22T20:27:48.498Z,10.17
2019-02-22T20:30:22.493Z,10.90
2019-02-22T20:36:08.737Z,11.80
2019-02-22T20:39:02.940Z,11.43
2019-02-22T20:41:52.709Z,12.03
2019-02-22T20:47:33.502Z,11.63
2019-02-22T20:52:44.310Z,11.77
2019-02-22T20:55:34.459Z,10.07
2019-02-22T20:58:23.730Z,9.97
2019-02-22T21:04:41.559Z,12.93
2019-02-22T21:07:13.422Z,12.27
2019-02-22T21:10:02.875Z,11.80
2019-02-22T21:12:33.987Z,12.93
2019-02-22T21:15:23.570Z,12.47
2019-02-22T21:17:54.174Z,15.03
2019-02-22T21:20:43.370Z,12.43
2019-02-22T21:23:13.661Z,12.87
2019-02-22T21:28:25.083Z,13.07
2019-02-22T21:30:55.505Z,13.27
2019-02-22T21:34:15.532Z,12.97
2019-02-22T21:36:36.513Z,11.13
2019-02-22T21:39:07.247Z,15.97
2019-02-22T21:41:56.898Z,14.87
2019-02-22T21:44:27.084Z,13.37
2019-02-22T21:47:16.383Z,10.23
2019-02-22T21:49:46.803Z,16.13
2019-02-22T21:52:36.241Z,16.60
2019-02-22T21:55:25.490Z,17.43
2019-02-22T21:58:35.053Z,17.63
2019-02-22T22:01:24.276Z,15.50
2019-02-22T22:03:54.503Z,16.23
2019-02-22T22:06:43.959Z,15.20
2019-02-22T22:09:33.485Z,19.23
2019-02-22T22:12:03.704Z,20.53
2019-02-22T22:14:53.014Z,21.57
2019-02-22T22:17:23.471Z,17.33
2019-02-22T22:20:12.865Z,19.13
2019-02-22T22:23:02.331Z,16.97
2019-02-22T22:26:10.501Z,18.93
2019-02-22T22:29:00.081Z,15.87
2019-02-22T22:31:50.105Z,18.93
2019-02-22T22:34:39.702Z,16.20
2019-02-22T22:37:28.823Z,15.77
2019-02-22T22:40:18.266Z,19.30
2019-02-22T22:43:07.575Z,15.77
2019-02-22T22:45:37.952Z,14.30
2019-02-22T22:48:08.443Z,15.17
2019-02-22T22:50:57.677Z,16.93
2019-02-22T22:53:27.951Z,16.77
2019-02-22T22:56:17.144Z,18.37
2019-02-22T22:59:06.638Z,17.47
2019-02-22T23:01:37.189Z,16.83
2019-02-22T23:04:07.746Z,19.90
2019-02-22T23:09:30.676Z,19.50
2019-02-22T23:12:01.057Z,16.03
2019-02-22T23:14:51.564Z,18.63
2019-02-22T23:17:41.085Z,20.83
2019-02-22T23:20:30.555Z,18.90
2019-02-22T23:23:20.045Z,17.73
2019-02-22T23:25:50.256Z,16.37
2019-02-22T23:28:39.872Z,21.07
2019-02-22T23:31:29.059Z,21.07
2019-02-22T23:33:59.195Z,18.43
2019-02-22T23:36:48.628Z,16.60
2019-02-22T23:39:19.161Z,23.60
2019-02-22T23:42:08.390Z,20.83
2019-02-22T23:44:57.710Z,18.63
2019-02-22T23:47:47.266Z,21.77
2019-02-22T23:50:36.893Z,19.53
2019-02-22T23:53:26.381Z,18.27
2019-02-22T23:56:15.828Z,16.00
2019-02-22T23:59:05.001Z,20.43
